ENAN

Andøya Airport

Andenes, Norway
METAR ENAN 152150Z AUTO 17005KT 9999 NCD 08/06 Q1007
Observed Flight Rules
Aug-15 @ 21:50 UTC (36 minutes ago) Visual Flight Rules
Wind Visibility Clouds
170° at 5 knots 10,000+ meters
  • Clear skies
Temperatures Readings
Current 8°C / 46°F
Dewpoint 6°C / 43°F
Humidity 87%
Altimeter 29.73" Hg
Pressure 1007 hPa
Elevation 14
METAR ENAN 152150Z AUTO 17005KT 9999 NCD 08/06 Q1007
Observed Flight Rules
Aug-15 @ 21:50 UTC
(36 minutes ago)
VFR
Wind Visibility
170° at 5 knots 10,000+ meters
Clouds
  • Clear skies
Temperature Dewpoint
8°C / 46°F 6°C / 43°F
Humidity Altimeter Pressure
87% 29.73" Hg 1007 hPa